sensor_id;sensor_type;location;lat;lon;timestamp;P1;durP1;ratioP1;P2;durP2;ratioP2
11646;SDS011;5880;52.342;9.662;2022-10-16T00:01:36;0.60;;;0.60;;
11646;SDS011;5880;52.342;9.662;2022-10-16T00:04:02;1.15;;;0.80;;
11646;SDS011;5880;52.342;9.662;2022-10-16T00:06:28;0.52;;;0.50;;
11646;SDS011;5880;52.342;9.662;2022-10-16T00:08:56;0.80;;;0.80;;
11646;SDS011;5880;52.342;9.662;2022-10-16T00:11:23;0.70;;;0.70;;
11646;SDS011;5880;52.342;9.662;2022-10-16T00:13:55;0.70;;;0.70;;
11646;SDS011;5880;52.342;9.662;2022-10-16T00:16:24;0.60;;;0.60;;
11646;SDS011;5880;52.342;9.662;2022-10-16T00:18:51;1.13;;;0.70;;
11646;SDS011;5880;52.342;9.662;2022-10-16T00:21:18;1.85;;;0.88;;
11646;SDS011;5880;52.342;9.662;2022-10-16T00:23:50;1.13;;;0.70;;
11646;SDS011;5880;52.342;9.662;2022-10-16T00:26:18;1.00;;;0.90;;
11646;SDS011;5880;52.342;9.662;2022-10-16T00:28:45;0.93;;;0.80;;
11646;SDS011;5880;52.342;9.662;2022-10-16T00:31:16;1.60;;;0.88;;
11646;SDS011;5880;52.342;9.662;2022-10-16T00:33:45;0.95;;;0.85;;
11646;SDS011;5880;52.342;9.662;2022-10-16T00:36:13;1.65;;;0.80;;
11646;SDS011;5880;52.342;9.662;2022-10-16T00:38:43;0.80;;;0.80;;
11646;SDS011;5880;52.342;9.662;2022-10-16T00:41:10;1.30;;;1.05;;
11646;SDS011;5880;52.342;9.662;2022-10-16T00:43:44;1.85;;;1.10;;
11646;SDS011;5880;52.342;9.662;2022-10-16T00:49:03;0.95;;;0.90;;
11646;SDS011;5880;52.342;9.662;2022-10-16T00:51:35;0.80;;;0.80;;
11646;SDS011;5880;52.342;9.662;2022-10-16T00:54:23;1.10;;;1.00;;
11646;SDS011;5880;52.342;9.662;2022-10-16T00:56:56;0.95;;;0.90;;
11646;SDS011;5880;52.342;9.662;2022-10-16T00:59:27;1.92;;;0.90;;
11646;SDS011;5880;52.342;9.662;2022-10-16T01:02:00;2.63;;;1.00;;
11646;SDS011;5880;52.342;9.662;2022-10-16T01:04:28;1.33;;;1.02;;
11646;SDS011;5880;52.342;9.662;2022-10-16T01:18:21;0.80;;;0.80;;
11646;SDS011;5880;52.342;9.662;2022-10-16T01:20:54;1.30;;;1.02;;
11646;SDS011;5880;52.342;9.662;2022-10-16T01:26:14;1.00;;;0.90;;
11646;SDS011;5880;52.342;9.662;2022-10-16T01:28:55;0.80;;;0.80;;
11646;SDS011;5880;52.342;9.662;2022-10-16T01:31:32;1.73;;;0.80;;
11646;SDS011;5880;52.342;9.662;2022-10-16T01:34:06;0.80;;;0.80;;
11646;SDS011;5880;52.342;9.662;2022-10-16T01:36:41;1.30;;;0.90;;
11646;SDS011;5880;52.342;9.662;2022-10-16T01:39:25;1.77;;;0.80;;
11646;SDS011;5880;52.342;9.662;2022-10-16T01:42:00;0.90;;;0.90;;
11646;SDS011;5880;52.342;9.662;2022-10-16T01:44:36;1.55;;;1.10;;
11646;SDS011;5880;52.342;9.662;2022-10-16T01:47:05;1.35;;;1.02;;
11646;SDS011;5880;52.342;9.662;2022-10-16T01:49:36;0.93;;;0.80;;
11646;SDS011;5880;52.342;9.662;2022-10-16T01:52:06;0.90;;;0.90;;
11646;SDS011;5880;52.342;9.662;2022-10-16T01:54:41;0.90;;;0.90;;
11646;SDS011;5880;52.342;9.662;2022-10-16T01:57:12;0.98;;;0.90;;
11646;SDS011;5880;52.342;9.662;2022-10-16T01:59:42;1.35;;;0.90;;
11646;SDS011;5880;52.342;9.662;2022-10-16T02:02:15;1.10;;;1.00;;
11646;SDS011;5880;52.342;9.662;2022-10-16T02:05:28;0.93;;;0.93;;
11646;SDS011;5880;52.342;9.662;2022-10-16T02:07:48;1.85;;;1.02;;
11646;SDS011;5880;52.342;9.662;2022-10-16T02:10:15;1.10;;;0.98;;
11646;SDS011;5880;52.342;9.662;2022-10-16T02:12:42;1.50;;;1.00;;
11646;SDS011;5880;52.342;9.662;2022-10-16T02:15:16;1.83;;;1.20;;
11646;SDS011;5880;52.342;9.662;2022-10-16T02:17:41;0.85;;;0.85;;
11646;SDS011;5880;52.342;9.662;2022-10-16T02:20:07;1.17;;;1.08;;
11646;SDS011;5880;52.342;9.662;2022-10-16T02:22:35;1.10;;;1.00;;
11646;SDS011;5880;52.342;9.662;2022-10-16T02:25:12;1.50;;;1.10;;
11646;SDS011;5880;52.342;9.662;2022-10-16T02:27:56;1.10;;;1.00;;
11646;SDS011;5880;52.342;9.662;2022-10-16T02:30:30;4.68;;;1.27;;
11646;SDS011;5880;52.342;9.662;2022-10-16T02:33:07;1.20;;;1.10;;
11646;SDS011;5880;52.342;9.662;2022-10-16T02:35:38;0.80;;;0.80;;
11646;SDS011;5880;52.342;9.662;2022-10-16T02:38:07;1.52;;;1.00;;
11646;SDS011;5880;52.342;9.662;2022-10-16T02:40:34;1.13;;;1.02;;
11646;SDS011;5880;52.342;9.662;2022-10-16T02:43:02;0.80;;;0.80;;
11646;SDS011;5880;52.342;9.662;2022-10-16T02:45:29;1.30;;;1.20;;
11646;SDS011;5880;52.342;9.662;2022-10-16T02:47:56;1.10;;;1.08;;
11646;SDS011;5880;52.342;9.662;2022-10-16T02:50:21;0.90;;;0.90;;
11646;SDS011;5880;52.342;9.662;2022-10-16T02:52:47;1.80;;;1.20;;
11646;SDS011;5880;52.342;9.662;2022-10-16T02:55:13;1.00;;;1.00;;
11646;SDS011;5880;52.342;9.662;2022-10-16T02:57:39;1.60;;;1.20;;
11646;SDS011;5880;52.342;9.662;2022-10-16T03:00:05;1.95;;;1.20;;
11646;SDS011;5880;52.342;9.662;2022-10-16T03:02:33;1.80;;;1.40;;
11646;SDS011;5880;52.342;9.662;2022-10-16T03:04:59;2.20;;;1.23;;
11646;SDS011;5880;52.342;9.662;2022-10-16T03:07:25;1.42;;;1.30;;
11646;SDS011;5880;52.342;9.662;2022-10-16T03:09:51;1.30;;;1.20;;
11646;SDS011;5880;52.342;9.662;2022-10-16T03:12:17;1.52;;;1.20;;
11646;SDS011;5880;52.342;9.662;2022-10-16T03:14:42;1.40;;;1.13;;
11646;SDS011;5880;52.342;9.662;2022-10-16T03:17:08;2.08;;;1.15;;
11646;SDS011;5880;52.342;9.662;2022-10-16T03:19:34;1.35;;;0.95;;
11646;SDS011;5880;52.342;9.662;2022-10-16T03:22:00;1.33;;;1.15;;
11646;SDS011;5880;52.342;9.662;2022-10-16T03:24:26;1.38;;;1.27;;
11646;SDS011;5880;52.342;9.662;2022-10-16T03:26:52;1.73;;;1.50;;
11646;SDS011;5880;52.342;9.662;2022-10-16T03:29:18;2.25;;;1.08;;
11646;SDS011;5880;52.342;9.662;2022-10-16T03:31:43;1.40;;;1.30;;
11646;SDS011;5880;52.342;9.662;2022-10-16T03:34:09;1.20;;;1.10;;
11646;SDS011;5880;52.342;9.662;2022-10-16T03:36:35;1.33;;;1.10;;
11646;SDS011;5880;52.342;9.662;2022-10-16T03:39:01;1.10;;;1.00;;
11646;SDS011;5880;52.342;9.662;2022-10-16T03:41:27;1.20;;;1.10;;
11646;SDS011;5880;52.342;9.662;2022-10-16T03:43:53;1.33;;;1.15;;
11646;SDS011;5880;52.342;9.662;2022-10-16T03:46:18;3.03;;;1.48;;
11646;SDS011;5880;52.342;9.662;2022-10-16T03:48:44;1.40;;;1.30;;
11646;SDS011;5880;52.342;9.662;2022-10-16T03:51:10;2.00;;;1.35;;
11646;SDS011;5880;52.342;9.662;2022-10-16T03:53:36;1.85;;;1.20;;
11646;SDS011;5880;52.342;9.662;2022-10-16T03:56:01;2.22;;;1.35;;
11646;SDS011;5880;52.342;9.662;2022-10-16T03:58:27;1.25;;;1.15;;
11646;SDS011;5880;52.342;9.662;2022-10-16T04:00:53;0.90;;;0.90;;
11646;SDS011;5880;52.342;9.662;2022-10-16T04:03:19;1.98;;;1.20;;
11646;SDS011;5880;52.342;9.662;2022-10-16T04:05:46;1.20;;;1.10;;
11646;SDS011;5880;52.342;9.662;2022-10-16T04:08:11;1.45;;;1.13;;
11646;SDS011;5880;52.342;9.662;2022-10-16T04:10:37;1.10;;;1.00;;
11646;SDS011;5880;52.342;9.662;2022-10-16T04:13:03;2.65;;;1.00;;
11646;SDS011;5880;52.342;9.662;2022-10-16T04:15:28;2.22;;;1.20;;
11646;SDS011;5880;52.342;9.662;2022-10-16T04:17:54;3.03;;;1.35;;
11646;SDS011;5880;52.342;9.662;2022-10-16T04:20:20;1.88;;;0.95;;
11646;SDS011;5880;52.342;9.662;2022-10-16T04:22:45;2.55;;;1.00;;
11646;SDS011;5880;52.342;9.662;2022-10-16T04:25:11;1.02;;;0.93;;
11646;SDS011;5880;52.342;9.662;2022-10-16T04:27:37;1.20;;;1.10;;
11646;SDS011;5880;52.342;9.662;2022-10-16T04:30:03;1.30;;;1.10;;
11646;SDS011;5880;52.342;9.662;2022-10-16T04:32:30;2.15;;;1.20;;
11646;SDS011;5880;52.342;9.662;2022-10-16T04:34:56;2.38;;;1.33;;
11646;SDS011;5880;52.342;9.662;2022-10-16T04:37:25;1.60;;;1.25;;
11646;SDS011;5880;52.342;9.662;2022-10-16T04:39:51;1.92;;;1.13;;
11646;SDS011;5880;52.342;9.662;2022-10-16T04:42:18;2.00;;;1.48;;
11646;SDS011;5880;52.342;9.662;2022-10-16T04:44:44;1.53;;;1.20;;
11646;SDS011;5880;52.342;9.662;2022-10-16T04:47:10;1.45;;;1.10;;
11646;SDS011;5880;52.342;9.662;2022-10-16T04:49:36;1.40;;;1.30;;
11646;SDS011;5880;52.342;9.662;2022-10-16T04:52:02;1.50;;;1.17;;
11646;SDS011;5880;52.342;9.662;2022-10-16T04:54:28;1.47;;;1.30;;
11646;SDS011;5880;52.342;9.662;2022-10-16T04:56:54;1.35;;;1.25;;
11646;SDS011;5880;52.342;9.662;2022-10-16T04:59:20;2.15;;;1.38;;
11646;SDS011;5880;52.342;9.662;2022-10-16T05:01:47;2.75;;;1.33;;
11646;SDS011;5880;52.342;9.662;2022-10-16T05:04:13;1.83;;;1.30;;
11646;SDS011;5880;52.342;9.662;2022-10-16T05:06:40;1.40;;;1.30;;
11646;SDS011;5880;52.342;9.662;2022-10-16T05:09:07;1.70;;;1.20;;
11646;SDS011;5880;52.342;9.662;2022-10-16T05:11:34;1.30;;;1.20;;
11646;SDS011;5880;52.342;9.662;2022-10-16T05:14:00;1.67;;;1.45;;
11646;SDS011;5880;52.342;9.662;2022-10-16T05:16:27;1.23;;;1.10;;
11646;SDS011;5880;52.342;9.662;2022-10-16T05:18:53;1.77;;;1.15;;
11646;SDS011;5880;52.342;9.662;2022-10-16T05:21:19;1.15;;;1.08;;
11646;SDS011;5880;52.342;9.662;2022-10-16T05:23:45;1.00;;;0.93;;
11646;SDS011;5880;52.342;9.662;2022-10-16T05:26:11;1.20;;;1.10;;
11646;SDS011;5880;52.342;9.662;2022-10-16T05:28:37;2.58;;;1.20;;
11646;SDS011;5880;52.342;9.662;2022-10-16T05:31:06;0.90;;;0.90;;
11646;SDS011;5880;52.342;9.662;2022-10-16T05:33:34;2.22;;;1.17;;
11646;SDS011;5880;52.342;9.662;2022-10-16T05:36:04;1.70;;;1.20;;
11646;SDS011;5880;52.342;9.662;2022-10-16T05:38:33;3.30;;;1.02;;
11646;SDS011;5880;52.342;9.662;2022-10-16T05:41:00;1.75;;;1.15;;
11646;SDS011;5880;52.342;9.662;2022-10-16T05:43:27;1.35;;;0.98;;
11646;SDS011;5880;52.342;9.662;2022-10-16T05:45:55;1.58;;;1.13;;
11646;SDS011;5880;52.342;9.662;2022-10-16T05:48:26;3.30;;;1.20;;
11646;SDS011;5880;52.342;9.662;2022-10-16T05:50:56;1.27;;;1.15;;
11646;SDS011;5880;52.342;9.662;2022-10-16T05:53:28;1.38;;;1.20;;
11646;SDS011;5880;52.342;9.662;2022-10-16T05:55:56;1.38;;;1.10;;
11646;SDS011;5880;52.342;9.662;2022-10-16T05:58:23;1.27;;;1.17;;
11646;SDS011;5880;52.342;9.662;2022-10-16T06:00:56;1.25;;;1.13;;
11646;SDS011;5880;52.342;9.662;2022-10-16T06:03:28;0.90;;;0.90;;
11646;SDS011;5880;52.342;9.662;2022-10-16T06:05:53;1.60;;;1.30;;
11646;SDS011;5880;52.342;9.662;2022-10-16T06:08:20;2.63;;;1.20;;
11646;SDS011;5880;52.342;9.662;2022-10-16T06:10:47;1.20;;;1.10;;
11646;SDS011;5880;52.342;9.662;2022-10-16T06:13:24;1.00;;;1.00;;
11646;SDS011;5880;52.342;9.662;2022-10-16T06:15:50;2.63;;;1.20;;
11646;SDS011;5880;52.342;9.662;2022-10-16T06:18:16;2.20;;;1.30;;
11646;SDS011;5880;52.342;9.662;2022-10-16T06:20:41;2.20;;;1.10;;
11646;SDS011;5880;52.342;9.662;2022-10-16T06:23:07;1.30;;;1.20;;
11646;SDS011;5880;52.342;9.662;2022-10-16T06:25:33;1.30;;;1.20;;
11646;SDS011;5880;52.342;9.662;2022-10-16T06:27:58;1.50;;;1.27;;
11646;SDS011;5880;52.342;9.662;2022-10-16T06:30:24;1.40;;;1.10;;
11646;SDS011;5880;52.342;9.662;2022-10-16T06:32:50;0.98;;;0.98;;
11646;SDS011;5880;52.342;9.662;2022-10-16T06:35:15;1.30;;;1.20;;
11646;SDS011;5880;52.342;9.662;2022-10-16T06:37:41;1.33;;;1.10;;
11646;SDS011;5880;52.342;9.662;2022-10-16T06:40:07;1.15;;;1.10;;
11646;SDS011;5880;52.342;9.662;2022-10-16T06:42:33;1.38;;;1.27;;
11646;SDS011;5880;52.342;9.662;2022-10-16T06:44:58;1.40;;;1.30;;
11646;SDS011;5880;52.342;9.662;2022-10-16T06:47:24;1.42;;;1.20;;
11646;SDS011;5880;52.342;9.662;2022-10-16T06:49:50;2.45;;;1.10;;
11646;SDS011;5880;52.342;9.662;2022-10-16T06:52:15;2.85;;;1.20;;
11646;SDS011;5880;52.342;9.662;2022-10-16T06:54:41;1.05;;;1.05;;
11646;SDS011;5880;52.342;9.662;2022-10-16T06:57:07;1.80;;;1.20;;
11646;SDS011;5880;52.342;9.662;2022-10-16T06:59:32;1.35;;;1.10;;
11646;SDS011;5880;52.342;9.662;2022-10-16T07:01:58;0.88;;;0.88;;
11646;SDS011;5880;52.342;9.662;2022-10-16T07:04:24;1.30;;;0.90;;
11646;SDS011;5880;52.342;9.662;2022-10-16T07:06:49;1.00;;;1.00;;
11646;SDS011;5880;52.342;9.662;2022-10-16T07:09:16;1.30;;;1.10;;
11646;SDS011;5880;52.342;9.662;2022-10-16T07:11:42;1.38;;;1.13;;
11646;SDS011;5880;52.342;9.662;2022-10-16T07:14:19;1.30;;;1.15;;
11646;SDS011;5880;52.342;9.662;2022-10-16T07:16:46;0.90;;;0.90;;
11646;SDS011;5880;52.342;9.662;2022-10-16T07:19:13;1.40;;;1.10;;
11646;SDS011;5880;52.342;9.662;2022-10-16T07:21:41;1.25;;;0.80;;
11646;SDS011;5880;52.342;9.662;2022-10-16T07:24:11;1.00;;;0.90;;
11646;SDS011;5880;52.342;9.662;2022-10-16T07:26:39;0.90;;;0.90;;
11646;SDS011;5880;52.342;9.662;2022-10-16T07:29:09;0.88;;;0.88;;
11646;SDS011;5880;52.342;9.662;2022-10-16T07:31:39;1.75;;;1.10;;
11646;SDS011;5880;52.342;9.662;2022-10-16T07:34:06;1.10;;;1.00;;
11646;SDS011;5880;52.342;9.662;2022-10-16T07:36:32;0.85;;;0.85;;
11646;SDS011;5880;52.342;9.662;2022-10-16T07:38:58;1.35;;;0.88;;
11646;SDS011;5880;52.342;9.662;2022-10-16T07:41:24;0.80;;;0.80;;
11646;SDS011;5880;52.342;9.662;2022-10-16T07:43:50;1.67;;;0.90;;
11646;SDS011;5880;52.342;9.662;2022-10-16T07:46:18;0.80;;;0.80;;
11646;SDS011;5880;52.342;9.662;2022-10-16T07:48:46;1.20;;;1.02;;
11646;SDS011;5880;52.342;9.662;2022-10-16T07:51:13;1.08;;;0.93;;
11646;SDS011;5880;52.342;9.662;2022-10-16T07:53:41;1.08;;;1.00;;
11646;SDS011;5880;52.342;9.662;2022-10-16T07:56:07;1.70;;;1.00;;
11646;SDS011;5880;52.342;9.662;2022-10-16T07:58:34;1.05;;;0.85;;
11646;SDS011;5880;52.342;9.662;2022-10-16T08:01:06;1.83;;;0.88;;
11646;SDS011;5880;52.342;9.662;2022-10-16T08:03:34;1.08;;;1.08;;
11646;SDS011;5880;52.342;9.662;2022-10-16T08:06:01;1.00;;;0.90;;
11646;SDS011;5880;52.342;9.662;2022-10-16T08:08:28;0.98;;;0.73;;
11646;SDS011;5880;52.342;9.662;2022-10-16T08:10:55;0.80;;;0.80;;
11646;SDS011;5880;52.342;9.662;2022-10-16T08:13:20;1.05;;;0.93;;
11646;SDS011;5880;52.342;9.662;2022-10-16T08:15:46;1.98;;;0.90;;
11646;SDS011;5880;52.342;9.662;2022-10-16T08:18:13;1.02;;;0.80;;
11646;SDS011;5880;52.342;9.662;2022-10-16T08:20:40;0.80;;;0.80;;
11646;SDS011;5880;52.342;9.662;2022-10-16T08:23:07;0.80;;;0.80;;
11646;SDS011;5880;52.342;9.662;2022-10-16T08:25:36;0.85;;;0.82;;
11646;SDS011;5880;52.342;9.662;2022-10-16T08:28:06;0.80;;;0.80;;
11646;SDS011;5880;52.342;9.662;2022-10-16T08:30:35;0.80;;;0.80;;
11646;SDS011;5880;52.342;9.662;2022-10-16T08:33:02;1.00;;;0.80;;
11646;SDS011;5880;52.342;9.662;2022-10-16T08:35:28;0.82;;;0.73;;
11646;SDS011;5880;52.342;9.662;2022-10-16T08:37:53;0.88;;;0.80;;
11646;SDS011;5880;52.342;9.662;2022-10-16T08:40:20;0.80;;;0.70;;
11646;SDS011;5880;52.342;9.662;2022-10-16T08:48:59;0.77;;;0.77;;
11646;SDS011;5880;52.342;9.662;2022-10-16T08:51:30;1.02;;;0.70;;
11646;SDS011;5880;52.342;9.662;2022-10-16T08:54:02;0.60;;;0.60;;
11646;SDS011;5880;52.342;9.662;2022-10-16T08:56:31;2.45;;;1.00;;
11646;SDS011;5880;52.342;9.662;2022-10-16T08:58:58;0.70;;;0.70;;
11646;SDS011;5880;52.342;9.662;2022-10-16T09:01:28;1.75;;;0.80;;
11646;SDS011;5880;52.342;9.662;2022-10-16T09:16:27;0.95;;;0.85;;
11646;SDS011;5880;52.342;9.662;2022-10-16T09:22:12;0.60;;;0.60;;
11646;SDS011;5880;52.342;9.662;2022-10-16T09:24:41;0.88;;;0.70;;
11646;SDS011;5880;52.342;9.662;2022-10-16T09:27:09;0.52;;;0.52;;
11646;SDS011;5880;52.342;9.662;2022-10-16T09:29:38;2.03;;;0.80;;
11646;SDS011;5880;52.342;9.662;2022-10-16T09:32:14;0.50;;;0.50;;
11646;SDS011;5880;52.342;9.662;2022-10-16T09:34:47;0.65;;;0.63;;
11646;SDS011;5880;52.342;9.662;2022-10-16T09:37:18;0.60;;;0.52;;
11646;SDS011;5880;52.342;9.662;2022-10-16T09:39:53;0.70;;;0.70;;
11646;SDS011;5880;52.342;9.662;2022-10-16T09:42:20;0.70;;;0.70;;
11646;SDS011;5880;52.342;9.662;2022-10-16T09:45:00;0.65;;;0.65;;
11646;SDS011;5880;52.342;9.662;2022-10-16T09:47:27;0.68;;;0.68;;
11646;SDS011;5880;52.342;9.662;2022-10-16T09:49:57;0.65;;;0.65;;
11646;SDS011;5880;52.342;9.662;2022-10-16T09:52:27;1.00;;;0.70;;
11646;SDS011;5880;52.342;9.662;2022-10-16T09:54:55;0.85;;;0.40;;
11646;SDS011;5880;52.342;9.662;2022-10-16T09:57:24;2.25;;;0.60;;
11646;SDS011;5880;52.342;9.662;2022-10-16T09:59:51;0.80;;;0.55;;
11646;SDS011;5880;52.342;9.662;2022-10-16T10:02:23;0.70;;;0.70;;
11646;SDS011;5880;52.342;9.662;2022-10-16T10:04:59;0.88;;;0.70;;
11646;SDS011;5880;52.342;9.662;2022-10-16T10:07:28;0.80;;;0.63;;
11646;SDS011;5880;52.342;9.662;2022-10-16T10:09:59;0.60;;;0.60;;
11646;SDS011;5880;52.342;9.662;2022-10-16T10:12:27;0.63;;;0.60;;
11646;SDS011;5880;52.342;9.662;2022-10-16T10:14:57;1.33;;;0.73;;
11646;SDS011;5880;52.342;9.662;2022-10-16T10:17:31;1.05;;;0.50;;
11646;SDS011;5880;52.342;9.662;2022-10-16T10:20:00;0.73;;;0.55;;
11646;SDS011;5880;52.342;9.662;2022-10-16T10:22:46;0.88;;;0.50;;
11646;SDS011;5880;52.342;9.662;2022-10-16T10:31:13;0.95;;;0.50;;
11646;SDS011;5880;52.342;9.662;2022-10-16T10:33:50;0.73;;;0.40;;
11646;SDS011;5880;52.342;9.662;2022-10-16T10:36:36;0.90;;;0.60;;
11646;SDS011;5880;52.342;9.662;2022-10-16T10:39:07;0.77;;;0.57;;
11646;SDS011;5880;52.342;9.662;2022-10-16T10:41:51;0.80;;;0.50;;
11646;SDS011;5880;52.342;9.662;2022-10-16T10:50:42;1.02;;;0.55;;
11646;SDS011;5880;52.342;9.662;2022-10-16T10:56:20;0.55;;;0.55;;
11646;SDS011;5880;52.342;9.662;2022-10-16T11:07:36;1.05;;;0.60;;
11646;SDS011;5880;52.342;9.662;2022-10-16T11:10:13;0.60;;;0.50;;
11646;SDS011;5880;52.342;9.662;2022-10-16T11:12:52;0.45;;;0.45;;
11646;SDS011;5880;52.342;9.662;2022-10-16T11:15:29;0.50;;;0.50;;
11646;SDS011;5880;52.342;9.662;2022-10-16T11:20:47;1.50;;;0.57;;
11646;SDS011;5880;52.342;9.662;2022-10-16T11:26:04;0.90;;;0.68;;
11646;SDS011;5880;52.342;9.662;2022-10-16T11:28:45;1.02;;;0.50;;
11646;SDS011;5880;52.342;9.662;2022-10-16T11:34:08;0.30;;;0.30;;
11646;SDS011;5880;52.342;9.662;2022-10-16T11:37:02;0.77;;;0.60;;
11646;SDS011;5880;52.342;9.662;2022-10-16T11:40:16;0.77;;;0.52;;
11646;SDS011;5880;52.342;9.662;2022-10-16T11:43:06;0.38;;;0.38;;
11646;SDS011;5880;52.342;9.662;2022-10-16T11:46:13;1.45;;;0.65;;
11646;SDS011;5880;52.342;9.662;2022-10-16T11:48:47;0.98;;;0.57;;
11646;SDS011;5880;52.342;9.662;2022-10-16T11:51:44;0.85;;;0.80;;
11646;SDS011;5880;52.342;9.662;2022-10-16T11:54:28;2.10;;;0.80;;
11646;SDS011;5880;52.342;9.662;2022-10-16T11:57:10;0.80;;;0.70;;
11646;SDS011;5880;52.342;9.662;2022-10-16T12:02:43;0.50;;;0.50;;
11646;SDS011;5880;52.342;9.662;2022-10-16T12:05:27;0.50;;;0.50;;
11646;SDS011;5880;52.342;9.662;2022-10-16T12:10:37;1.23;;;0.60;;
11646;SDS011;5880;52.342;9.662;2022-10-16T12:19:03;1.20;;;0.50;;
11646;SDS011;5880;52.342;9.662;2022-10-16T12:21:42;0.65;;;0.40;;
11646;SDS011;5880;52.342;9.662;2022-10-16T12:27:02;0.93;;;0.47;;
11646;SDS011;5880;52.342;9.662;2022-10-16T12:29:37;1.27;;;0.50;;
11646;SDS011;5880;52.342;9.662;2022-10-16T12:35:00;0.43;;;0.40;;
11646;SDS011;5880;52.342;9.662;2022-10-16T12:37:36;0.98;;;0.40;;
11646;SDS011;5880;52.342;9.662;2022-10-16T12:40:22;0.45;;;0.43;;
11646;SDS011;5880;52.342;9.662;2022-10-16T12:42:51;0.98;;;0.40;;
11646;SDS011;5880;52.342;9.662;2022-10-16T12:45:24;0.70;;;0.45;;
11646;SDS011;5880;52.342;9.662;2022-10-16T12:47:53;0.77;;;0.50;;
11646;SDS011;5880;52.342;9.662;2022-10-16T12:50:37;1.25;;;0.60;;
11646;SDS011;5880;52.342;9.662;2022-10-16T12:53:26;0.45;;;0.40;;
11646;SDS011;5880;52.342;9.662;2022-10-16T12:59:49;0.47;;;0.47;;
11646;SDS011;5880;52.342;9.662;2022-10-16T13:05:34;0.47;;;0.30;;
11646;SDS011;5880;52.342;9.662;2022-10-16T13:20:30;0.45;;;0.45;;
11646;SDS011;5880;52.342;9.662;2022-10-16T13:29:21;0.93;;;0.50;;
11646;SDS011;5880;52.342;9.662;2022-10-16T13:31:47;0.50;;;0.40;;
11646;SDS011;5880;52.342;9.662;2022-10-16T13:34:17;0.80;;;0.40;;
11646;SDS011;5880;52.342;9.662;2022-10-16T13:36:51;0.60;;;0.60;;
11646;SDS011;5880;52.342;9.662;2022-10-16T13:39:28;1.85;;;0.85;;
11646;SDS011;5880;52.342;9.662;2022-10-16T13:44:34;0.70;;;0.38;;
11646;SDS011;5880;52.342;9.662;2022-10-16T13:47:20;0.68;;;0.47;;
11646;SDS011;5880;52.342;9.662;2022-10-16T13:50:02;3.13;;;0.60;;
11646;SDS011;5880;52.342;9.662;2022-10-16T13:52:40;0.30;;;0.30;;
11646;SDS011;5880;52.342;9.662;2022-10-16T13:55:13;0.52;;;0.40;;
11646;SDS011;5880;52.342;9.662;2022-10-16T13:57:42;0.80;;;0.60;;
11646;SDS011;5880;52.342;9.662;2022-10-16T14:00:20;0.40;;;0.40;;
11646;SDS011;5880;52.342;9.662;2022-10-16T14:03:05;0.30;;;0.30;;
11646;SDS011;5880;52.342;9.662;2022-10-16T14:05:52;0.35;;;0.32;;
11646;SDS011;5880;52.342;9.662;2022-10-16T14:08:22;1.55;;;0.70;;
11646;SDS011;5880;52.342;9.662;2022-10-16T14:10:51;1.95;;;0.40;;
11646;SDS011;5880;52.342;9.662;2022-10-16T14:13:28;0.77;;;0.47;;
11646;SDS011;5880;52.342;9.662;2022-10-16T14:16:02;0.52;;;0.40;;
11646;SDS011;5880;52.342;9.662;2022-10-16T14:18:34;0.65;;;0.30;;
11646;SDS011;5880;52.342;9.662;2022-10-16T14:21:07;0.70;;;0.43;;
11646;SDS011;5880;52.342;9.662;2022-10-16T14:23:41;0.65;;;0.50;;
11646;SDS011;5880;52.342;9.662;2022-10-16T14:28:33;0.68;;;0.38;;
11646;SDS011;5880;52.342;9.662;2022-10-16T14:31:02;0.68;;;0.40;;
11646;SDS011;5880;52.342;9.662;2022-10-16T14:33:42;1.95;;;0.40;;
11646;SDS011;5880;52.342;9.662;2022-10-16T14:36:12;1.77;;;0.30;;
11646;SDS011;5880;52.342;9.662;2022-10-16T14:38:41;0.43;;;0.40;;
11646;SDS011;5880;52.342;9.662;2022-10-16T14:41:33;1.00;;;0.57;;
11646;SDS011;5880;52.342;9.662;2022-10-16T14:44:10;0.40;;;0.40;;
11646;SDS011;5880;52.342;9.662;2022-10-16T14:46:38;0.50;;;0.50;;
11646;SDS011;5880;52.342;9.662;2022-10-16T14:51:39;0.45;;;0.40;;
11646;SDS011;5880;52.342;9.662;2022-10-16T14:54:08;0.40;;;0.40;;
11646;SDS011;5880;52.342;9.662;2022-10-16T14:56:40;0.60;;;0.60;;
11646;SDS011;5880;52.342;9.662;2022-10-16T15:01:54;0.60;;;0.40;;
11646;SDS011;5880;52.342;9.662;2022-10-16T15:04:19;0.35;;;0.35;;
11646;SDS011;5880;52.342;9.662;2022-10-16T15:06:45;0.60;;;0.40;;
11646;SDS011;5880;52.342;9.662;2022-10-16T15:09:11;0.43;;;0.43;;
11646;SDS011;5880;52.342;9.662;2022-10-16T15:11:37;0.98;;;0.45;;
11646;SDS011;5880;52.342;9.662;2022-10-16T15:14:03;0.98;;;0.38;;
11646;SDS011;5880;52.342;9.662;2022-10-16T15:16:29;0.30;;;0.30;;
11646;SDS011;5880;52.342;9.662;2022-10-16T15:18:56;0.40;;;0.38;;
11646;SDS011;5880;52.342;9.662;2022-10-16T15:21:24;0.68;;;0.40;;
11646;SDS011;5880;52.342;9.662;2022-10-16T15:23:52;0.35;;;0.35;;
11646;SDS011;5880;52.342;9.662;2022-10-16T15:26:18;0.85;;;0.43;;
11646;SDS011;5880;52.342;9.662;2022-10-16T15:28:43;0.73;;;0.47;;
11646;SDS011;5880;52.342;9.662;2022-10-16T15:31:09;0.40;;;0.40;;
11646;SDS011;5880;52.342;9.662;2022-10-16T15:33:35;0.60;;;0.35;;
11646;SDS011;5880;52.342;9.662;2022-10-16T15:36:01;0.45;;;0.30;;
11646;SDS011;5880;52.342;9.662;2022-10-16T15:38:28;0.30;;;0.30;;
11646;SDS011;5880;52.342;9.662;2022-10-16T15:40:55;1.27;;;0.50;;
11646;SDS011;5880;52.342;9.662;2022-10-16T15:43:21;0.65;;;0.40;;
11646;SDS011;5880;52.342;9.662;2022-10-16T15:45:54;0.43;;;0.40;;
11646;SDS011;5880;52.342;9.662;2022-10-16T15:48:30;0.40;;;0.40;;
11646;SDS011;5880;52.342;9.662;2022-10-16T15:50:57;0.40;;;0.40;;
11646;SDS011;5880;52.342;9.662;2022-10-16T15:53:24;0.52;;;0.52;;
11646;SDS011;5880;52.342;9.662;2022-10-16T15:55:50;0.63;;;0.40;;
11646;SDS011;5880;52.342;9.662;2022-10-16T15:58:16;0.60;;;0.57;;
11646;SDS011;5880;52.342;9.662;2022-10-16T16:00:42;0.50;;;0.50;;
11646;SDS011;5880;52.342;9.662;2022-10-16T16:03:08;0.70;;;0.70;;
11646;SDS011;5880;52.342;9.662;2022-10-16T16:05:37;1.17;;;0.60;;
11646;SDS011;5880;52.342;9.662;2022-10-16T16:08:05;0.50;;;0.38;;
11646;SDS011;5880;52.342;9.662;2022-10-16T16:10:30;1.35;;;0.70;;
11646;SDS011;5880;52.342;9.662;2022-10-16T16:12:56;0.50;;;0.50;;
11646;SDS011;5880;52.342;9.662;2022-10-16T16:15:22;1.15;;;0.60;;
11646;SDS011;5880;52.342;9.662;2022-10-16T16:17:48;0.55;;;0.45;;
11646;SDS011;5880;52.342;9.662;2022-10-16T16:20:14;0.90;;;0.50;;
11646;SDS011;5880;52.342;9.662;2022-10-16T16:22:40;0.57;;;0.47;;
11646;SDS011;5880;52.342;9.662;2022-10-16T16:25:06;0.40;;;0.40;;
11646;SDS011;5880;52.342;9.662;2022-10-16T16:27:32;0.70;;;0.50;;
11646;SDS011;5880;52.342;9.662;2022-10-16T16:29:59;1.33;;;0.90;;
11646;SDS011;5880;52.342;9.662;2022-10-16T16:32:28;1.20;;;0.65;;
11646;SDS011;5880;52.342;9.662;2022-10-16T16:34:54;1.60;;;0.80;;
11646;SDS011;5880;52.342;9.662;2022-10-16T16:37:19;1.23;;;0.70;;
11646;SDS011;5880;52.342;9.662;2022-10-16T16:39:45;1.83;;;0.82;;
11646;SDS011;5880;52.342;9.662;2022-10-16T16:42:11;1.27;;;0.60;;
11646;SDS011;5880;52.342;9.662;2022-10-16T16:44:36;1.52;;;0.63;;
11646;SDS011;5880;52.342;9.662;2022-10-16T16:47:03;1.83;;;0.77;;
11646;SDS011;5880;52.342;9.662;2022-10-16T16:49:30;2.28;;;0.73;;
11646;SDS011;5880;52.342;9.662;2022-10-16T16:51:56;0.88;;;0.77;;
11646;SDS011;5880;52.342;9.662;2022-10-16T16:54:22;2.25;;;0.80;;
11646;SDS011;5880;52.342;9.662;2022-10-16T16:56:48;1.83;;;0.80;;
11646;SDS011;5880;52.342;9.662;2022-10-16T16:59:14;1.73;;;0.70;;
11646;SDS011;5880;52.342;9.662;2022-10-16T17:01:44;1.50;;;0.90;;
11646;SDS011;5880;52.342;9.662;2022-10-16T17:04:11;1.73;;;0.77;;
11646;SDS011;5880;52.342;9.662;2022-10-16T17:06:40;0.70;;;0.70;;
11646;SDS011;5880;52.342;9.662;2022-10-16T17:09:06;0.75;;;0.73;;
11646;SDS011;5880;52.342;9.662;2022-10-16T17:11:33;0.63;;;0.57;;
11646;SDS011;5880;52.342;9.662;2022-10-16T17:13:59;0.80;;;0.80;;
11646;SDS011;5880;52.342;9.662;2022-10-16T17:16:27;1.27;;;0.90;;
11646;SDS011;5880;52.342;9.662;2022-10-16T17:19:01;3.15;;;0.90;;
11646;SDS011;5880;52.342;9.662;2022-10-16T17:21:29;1.42;;;1.15;;